createdAt,value
2022-12-03T00:00:13.119Z,96378.28
2022-12-03T00:02:41.113Z,96379.38
2022-12-03T00:05:11.012Z,96379.63
2022-12-03T00:07:38.596Z,96382.28
2022-12-03T00:10:07.755Z,96385.06
2022-12-03T00:12:35.372Z,96381.81
2022-12-03T00:15:02.932Z,96382.84
2022-12-03T00:17:30.455Z,96391.91
2022-12-03T00:19:58.051Z,96390.16
2022-12-03T00:22:26.932Z,96389.78
2022-12-03T00:24:54.780Z,96387.22
2022-12-03T00:27:22.467Z,96381.47
2022-12-03T00:29:50.048Z,96379.56
2022-12-03T00:32:17.569Z,96369.81
2022-12-03T00:34:45.484Z,96366.38
2022-12-03T00:37:13.012Z,96370.19
2022-12-03T00:39:41.898Z,96364.34
2022-12-03T00:42:09.454Z,96366.88
2022-12-03T00:44:36.976Z,96367.81
2022-12-03T00:47:04.657Z,96355.41
2022-12-03T00:49:32.468Z,96365.91
2022-12-03T00:52:00.100Z,96370.31
2022-12-03T00:54:31.809Z,96362.28
2022-12-03T00:57:01.228Z,96370.84
2022-12-03T00:59:28.767Z,96363.91
2022-12-03T01:01:56.446Z,96373.25
2022-12-03T01:04:24.132Z,96373.16
2022-12-03T01:06:51.692Z,96368.53
2022-12-03T01:09:19.250Z,96374.72
2022-12-03T01:11:46.773Z,96370.19
2022-12-03T01:14:18.580Z,96373.00
2022-12-03T01:16:46.909Z,96371.72
2022-12-03T01:19:16.344Z,96365.44
2022-12-03T01:21:44.503Z,96364.13
2022-12-03T01:24:12.347Z,96364.88
2022-12-03T01:26:39.908Z,96375.38
2022-12-03T01:29:07.605Z,96372.31
2022-12-03T01:31:54.005Z,96378.88
2022-12-03T01:34:21.607Z,96371.81
2022-12-03T01:36:49.121Z,96382.47
2022-12-03T01:39:16.656Z,96383.84
2022-12-03T01:41:44.335Z,96380.44
2022-12-03T01:44:17.747Z,96371.66
2022-12-03T01:46:47.650Z,96371.06
2022-12-03T01:49:19.968Z,96372.66
2022-12-03T01:51:49.471Z,96372.09
2022-12-03T01:54:19.147Z,96372.31
2022-12-03T01:56:48.120Z,96365.19
2022-12-03T01:59:17.917Z,96364.81
2022-12-03T02:01:46.964Z,96374.28
2022-12-03T02:04:16.455Z,96377.34
2022-12-03T02:06:45.672Z,96371.88
2022-12-03T02:09:14.250Z,96366.09
2022-12-03T02:11:45.570Z,96369.69
2022-12-03T02:14:16.957Z,96369.34
2022-12-03T02:16:45.162Z,96367.31
2022-12-03T02:19:22.509Z,96370.59
2022-12-03T02:21:58.504Z,96380.28
2022-12-03T02:24:34.400Z,96368.09
2022-12-03T02:27:03.564Z,96375.50
2022-12-03T02:29:31.225Z,96381.81
2022-12-03T02:31:58.948Z,96377.75
2022-12-03T02:34:40.879Z,96374.56
2022-12-03T02:37:11.680Z,96373.41
2022-12-03T02:39:43.748Z,96375.63
2022-12-03T02:42:42.309Z,96382.34
2022-12-03T02:45:14.170Z,96374.16
2022-12-03T02:47:44.823Z,96371.09
2022-12-03T02:50:15.025Z,96382.66
2022-12-03T02:52:45.332Z,96378.97
2022-12-03T02:55:14.995Z,96381.28
2022-12-03T02:57:46.092Z,96382.25
2022-12-03T03:00:15.085Z,96381.53
2022-12-03T03:02:43.319Z,96380.97
2022-12-03T03:05:12.568Z,96378.25
2022-12-03T03:07:41.386Z,96380.97
2022-12-03T03:10:12.355Z,96377.22
2022-12-03T03:12:40.158Z,96386.13
2022-12-03T03:15:11.492Z,96379.31
2022-12-03T03:17:39.600Z,96383.66
2022-12-03T03:20:09.065Z,96382.47
2022-12-03T03:22:38.570Z,96378.34
2022-12-03T03:25:07.729Z,96385.63
2022-12-03T03:27:35.906Z,96384.94
2022-12-03T03:30:04.401Z,96381.34
2022-12-03T03:32:33.519Z,96383.75
2022-12-03T03:35:01.323Z,96390.72
2022-12-03T03:37:29.566Z,96388.50
2022-12-03T03:39:57.432Z,96380.28
2022-12-03T03:42:25.667Z,96380.69
2022-12-03T03:44:53.644Z,96377.50
2022-12-03T03:47:23.660Z,96374.31
2022-12-03T03:49:52.994Z,96375.44
2022-12-03T03:52:21.138Z,96373.06
2022-12-03T03:54:49.114Z,96375.84
2022-12-03T03:57:16.871Z,96366.81
2022-12-03T03:59:44.624Z,96381.75
2022-12-03T04:02:19.660Z,96377.47
2022-12-03T04:04:48.543Z,96380.47
2022-12-03T04:07:17.747Z,96376.44
2022-12-03T04:09:45.330Z,96378.97
2022-12-03T04:12:31.094Z,96382.03
2022-12-03T04:14:59.081Z,96373.47
2022-12-03T04:17:26.668Z,96370.56
2022-12-03T04:19:54.234Z,96379.41
2022-12-03T04:22:40.241Z,96380.56
2022-12-03T04:25:27.335Z,96384.94
2022-12-03T04:28:12.644Z,96379.63
2022-12-03T04:30:40.352Z,96373.75
2022-12-03T04:33:25.629Z,96374.78
2022-12-03T04:35:53.315Z,96369.22
2022-12-03T04:38:22.308Z,96358.41
2022-12-03T04:41:01.832Z,96356.72
2022-12-03T04:43:29.979Z,96363.97
2022-12-03T04:45:57.566Z,96371.06
2022-12-03T04:48:25.399Z,96363.81
2022-12-03T04:50:52.976Z,96353.31
2022-12-03T04:53:21.884Z,96357.34
2022-12-03T04:55:49.469Z,96365.78
2022-12-03T04:58:17.041Z,96366.00
2022-12-03T05:00:44.576Z,96366.66
2022-12-03T05:03:12.104Z,96362.16
2022-12-03T05:05:39.709Z,96352.91
2022-12-03T05:08:08.192Z,96354.44
2022-12-03T05:10:37.139Z,96349.31
2022-12-03T05:13:04.666Z,96350.47
2022-12-03T05:15:32.196Z,96339.72
2022-12-03T05:17:59.723Z,96343.38
2022-12-03T05:20:44.751Z,96354.34
2022-12-03T05:23:17.448Z,96358.41
2022-12-03T05:25:46.576Z,96363.03
2022-12-03T05:28:14.105Z,96361.16
2022-12-03T05:30:41.926Z,96361.38
2022-12-03T05:33:09.503Z,96359.94
2022-12-03T05:35:37.040Z,96362.53
2022-12-03T05:38:04.575Z,96365.44
2022-12-03T05:40:32.193Z,96362.47
2022-12-03T05:43:01.637Z,96356.31
2022-12-03T05:45:31.129Z,96369.44
2022-12-03T05:48:00.139Z,96362.88
2022-12-03T05:50:29.986Z,96357.50
2022-12-03T05:52:57.586Z,96359.31
2022-12-03T05:55:25.758Z,96364.59
2022-12-03T05:57:53.483Z,96371.19
2022-12-03T06:00:25.104Z,96372.75
2022-12-03T06:02:53.287Z,96368.34
2022-12-03T06:05:21.577Z,96367.22
2022-12-03T06:07:50.179Z,96368.00
2022-12-03T06:10:19.974Z,96363.53
2022-12-03T06:12:47.532Z,96348.34
2022-12-03T06:15:15.746Z,96360.66
2022-12-03T06:17:44.656Z,96355.03
2022-12-03T06:20:16.118Z,96361.91
2022-12-03T06:22:44.113Z,96370.50
2022-12-03T06:25:12.304Z,96378.78
2022-12-03T06:27:39.837Z,96375.28
2022-12-03T06:30:09.489Z,96379.72
2022-12-03T06:32:37.022Z,96371.88
2022-12-03T06:35:06.586Z,96367.34
2022-12-03T06:37:34.205Z,96371.56
2022-12-03T06:40:01.780Z,96378.97
2022-12-03T06:42:29.340Z,96375.09
2022-12-03T06:44:57.127Z,96383.94
2022-12-03T06:47:24.840Z,96375.31
2022-12-03T06:49:52.436Z,96386.72
2022-12-03T06:52:21.363Z,96376.97
2022-12-03T06:54:48.910Z,96374.25
2022-12-03T06:57:16.999Z,96377.50
2022-12-03T06:59:44.508Z,96375.53
2022-12-03T07:02:12.713Z,96385.81
2022-12-03T07:04:44.829Z,96377.22
2022-12-03T07:07:13.976Z,96372.69
2022-12-03T07:09:42.868Z,96375.06
2022-12-03T07:12:10.380Z,96376.63
2022-12-03T07:14:37.955Z,96372.63
2022-12-03T07:17:05.488Z,96375.28
2022-12-03T07:19:33.359Z,96374.78
2022-12-03T07:22:01.111Z,96364.31
2022-12-03T07:24:28.662Z,96376.34
2022-12-03T07:26:57.541Z,96368.50
2022-12-03T07:29:25.310Z,96360.66
2022-12-03T07:31:52.928Z,96357.75
2022-12-03T07:34:20.544Z,96367.28
2022-12-03T07:36:48.195Z,96357.94
2022-12-03T07:39:15.999Z,96359.59
2022-12-03T07:41:43.527Z,96355.25
2022-12-03T07:44:14.804Z,96353.59
2022-12-03T07:46:43.805Z,96356.88
2022-12-03T07:49:12.054Z,96358.75
2022-12-03T07:51:39.796Z,96366.28
2022-12-03T07:54:07.556Z,96355.78
2022-12-03T07:56:35.230Z,96361.16
2022-12-03T07:59:02.773Z,96367.34
2022-12-03T08:01:31.681Z,96354.88
2022-12-03T08:03:59.250Z,96355.25
2022-12-03T08:06:26.935Z,96354.75
2022-12-03T08:08:54.467Z,96353.06
2022-12-03T08:11:22.008Z,96356.28
2022-12-03T08:13:49.708Z,96356.69
2022-12-03T08:16:19.860Z,96350.81
2022-12-03T08:18:50.028Z,96355.59
2022-12-03T08:21:22.482Z,96344.31
2022-12-03T08:23:50.095Z,96340.53
2022-12-03T08:26:23.076Z,96340.06
2022-12-03T08:28:50.858Z,96341.06
2022-12-03T08:31:20.679Z,96340.06
2022-12-03T08:33:51.940Z,96353.44
2022-12-03T08:36:23.270Z,96347.84
2022-12-03T08:38:53.080Z,96346.44
2022-12-03T08:41:42.184Z,96345.44
2022-12-03T08:44:25.907Z,96345.19
2022-12-03T08:47:00.841Z,96340.69
2022-12-03T08:49:29.728Z,96348.88
2022-12-03T08:52:00.170Z,96358.94
2022-12-03T08:54:28.202Z,96354.53
2022-12-03T08:56:55.929Z,96353.31
2022-12-03T08:59:29.485Z,96350.19
2022-12-03T09:01:57.516Z,96352.03
2022-12-03T09:04:30.997Z,96346.25
2022-12-03T09:06:58.647Z,96348.47
2022-12-03T09:09:26.873Z,96336.56
2022-12-03T09:11:54.995Z,96348.03
2022-12-03T09:14:23.589Z,96352.06
2022-12-03T09:16:55.351Z,96350.03
2022-12-03T09:19:23.288Z,96356.69
2022-12-03T09:21:52.219Z,96357.50
2022-12-03T09:24:19.767Z,96354.09
2022-12-03T09:26:47.334Z,96358.44
2022-12-03T09:29:14.855Z,96355.97
2022-12-03T09:31:42.671Z,96353.38
2022-12-03T09:34:10.367Z,96358.91
2022-12-03T09:36:37.969Z,96359.19
2022-12-03T09:39:07.423Z,96347.81
2022-12-03T09:41:34.997Z,96349.19
2022-12-03T09:44:04.355Z,96346.69
2022-12-03T09:46:33.665Z,96343.44
2022-12-03T09:49:01.799Z,96335.59
2022-12-03T09:51:33.937Z,96334.88
2022-12-03T09:54:02.328Z,96350.84
2022-12-03T09:56:31.494Z,96352.06
2022-12-03T09:58:59.062Z,96342.25
2022-12-03T10:01:30.094Z,96359.34
2022-12-03T10:03:58.523Z,96360.28
2022-12-03T10:06:26.135Z,96331.69
2022-12-03T10:08:55.812Z,96332.66
2022-12-03T10:11:25.545Z,96337.50
2022-12-03T10:13:57.141Z,96330.41
2022-12-03T10:16:26.035Z,96345.97
2022-12-03T10:18:55.915Z,96347.59
2022-12-03T10:21:26.811Z,96336.19
2022-12-03T10:24:18.964Z,96324.13
2022-12-03T10:26:48.280Z,96333.91
2022-12-03T10:29:19.742Z,96332.88
2022-12-03T10:31:56.314Z,96318.41
2022-12-03T10:34:32.546Z,96326.97
2022-12-03T10:37:18.492Z,96316.16
2022-12-03T10:39:57.671Z,96321.25
2022-12-03T10:42:26.195Z,96316.25
2022-12-03T10:45:13.756Z,96320.13
2022-12-03T10:47:41.392Z,96320.81
2022-12-03T10:50:19.273Z,96316.34
2022-12-03T10:52:48.081Z,96316.91
2022-12-03T10:55:17.357Z,96321.00
2022-12-03T10:57:46.084Z,96310.16
2022-12-03T11:00:19.852Z,96309.03
2022-12-03T11:02:54.950Z,96313.81
2022-12-03T11:05:27.796Z,96317.78
2022-12-03T11:07:55.630Z,96313.28
2022-12-03T11:10:23.441Z,96307.53
2022-12-03T11:13:24.604Z,96306.16
2022-12-03T11:15:54.099Z,96297.00
2022-12-03T11:19:00.324Z,96298.22
2022-12-03T11:21:28.175Z,96298.47
2022-12-03T11:24:16.693Z,96300.13
2022-12-03T11:27:23.904Z,96295.03
2022-12-03T11:29:57.636Z,96295.38
2022-12-03T11:33:06.115Z,96294.03
2022-12-03T11:35:54.109Z,96293.00
2022-12-03T11:38:52.302Z,96297.22
2022-12-03T11:41:39.547Z,96291.19
2022-12-03T11:44:31.863Z,96291.16
2022-12-03T11:47:02.105Z,96276.66
2022-12-03T11:49:35.139Z,96282.22
2022-12-03T11:52:18.740Z,96267.97
2022-12-03T11:54:49.299Z,96271.13
2022-12-03T11:57:27.395Z,96266.59
2022-12-03T11:59:59.460Z,96266.03
2022-12-03T12:02:27.146Z,96253.72
2022-12-03T12:04:54.671Z,96247.31
2022-12-03T12:07:36.121Z,96247.38
2022-12-03T12:10:04.891Z,96247.38
2022-12-03T12:12:39.199Z,96238.56
2022-12-03T12:15:49.439Z,96243.75
2022-12-03T12:18:40.306Z,96240.81
2022-12-03T12:21:43.212Z,96254.00
2022-12-03T12:24:36.156Z,96244.22
2022-12-03T12:27:07.260Z,96243.75
2022-12-03T12:29:35.359Z,96234.31
2022-12-03T12:32:12.738Z,96240.16
2022-12-03T12:34:41.575Z,96241.63
2022-12-03T12:37:13.399Z,96231.69
2022-12-03T12:39:42.365Z,96230.28
2022-12-03T12:42:30.184Z,96229.91
2022-12-03T12:45:02.169Z,96212.38
2022-12-03T12:47:31.227Z,96223.56
2022-12-03T12:49:59.605Z,96212.47
2022-12-03T12:52:29.103Z,96215.03
2022-12-03T12:55:03.059Z,96220.84
2022-12-03T12:57:33.228Z,96219.63
2022-12-03T13:00:00.822Z,96224.78
2022-12-03T13:02:42.901Z,96213.03
2022-12-03T13:05:13.420Z,96208.25
2022-12-03T13:07:42.927Z,96218.00
2022-12-03T13:10:36.580Z,96214.13
2022-12-03T13:13:15.815Z,96205.25
2022-12-03T13:15:49.162Z,96215.69
2022-12-03T13:18:40.382Z,96212.41
2022-12-03T13:21:17.810Z,96213.41
2022-12-03T13:23:45.342Z,96210.13
2022-12-03T13:26:32.787Z,96220.00
2022-12-03T13:29:07.226Z,96210.97
2022-12-03T13:31:43.407Z,96207.97
2022-12-03T13:34:15.366Z,96204.19
2022-12-03T13:36:45.260Z,96197.06
2022-12-03T13:39:19.842Z,96194.69
2022-12-03T13:42:07.380Z,96200.72
2022-12-03T13:44:50.698Z,96194.13
2022-12-03T13:47:21.743Z,96188.47
2022-12-03T13:49:53.682Z,96181.56
2022-12-03T13:52:24.828Z,96193.38
2022-12-03T13:54:54.679Z,96195.53
2022-12-03T13:57:23.983Z,96184.09
2022-12-03T13:59:52.103Z,96181.88
2022-12-03T14:02:20.108Z,96195.50
2022-12-03T14:04:47.714Z,96183.91
2022-12-03T14:07:15.297Z,96192.38
2022-12-03T14:09:42.808Z,96192.56
2022-12-03T14:12:33.365Z,96202.56
2022-12-03T14:15:03.166Z,96200.94
2022-12-03T14:17:31.305Z,96194.72
2022-12-03T14:20:00.863Z,96195.66
2022-12-03T14:22:28.454Z,96200.63
2022-12-03T14:24:56.232Z,96192.97
2022-12-03T14:27:24.780Z,96191.28
2022-12-03T14:29:52.942Z,96204.59
2022-12-03T14:32:22.172Z,96198.25
2022-12-03T14:34:49.770Z,96192.59
2022-12-03T14:37:17.327Z,96193.41
2022-12-03T14:39:44.854Z,96185.34
2022-12-03T14:42:14.396Z,96183.75
2022-12-03T14:44:42.126Z,96185.59
2022-12-03T14:47:10.134Z,96179.44
2022-12-03T14:49:39.315Z,96182.41
2022-12-03T14:52:11.364Z,96181.13
2022-12-03T14:54:41.918Z,96190.38
2022-12-03T14:57:09.792Z,96191.38
2022-12-03T14:59:37.307Z,96189.91
2022-12-03T15:02:04.881Z,96184.75
2022-12-03T15:04:32.424Z,96175.94
2022-12-03T15:07:01.397Z,96178.69
2022-12-03T15:09:28.907Z,96185.72
2022-12-03T15:11:56.403Z,96179.22
2022-12-03T15:14:24.089Z,96181.22
2022-12-03T15:16:51.703Z,96184.63
2022-12-03T15:19:19.264Z,96174.44
2022-12-03T15:21:46.833Z,96190.22
2022-12-03T15:24:15.724Z,96193.91
2022-12-03T15:26:43.233Z,96190.19
2022-12-03T15:29:11.061Z,96194.38
2022-12-03T15:31:38.720Z,96193.41
2022-12-03T15:34:06.354Z,96186.59
2022-12-03T15:36:33.884Z,96181.66
2022-12-03T15:39:01.544Z,96188.84
2022-12-03T15:41:30.596Z,96185.44
2022-12-03T15:44:01.452Z,96195.47
2022-12-03T15:46:31.135Z,96185.38
2022-12-03T15:48:58.878Z,96178.31
2022-12-03T15:51:26.446Z,96178.00
2022-12-03T15:53:53.990Z,96187.41
2022-12-03T15:56:21.530Z,96183.91
2022-12-03T15:58:50.412Z,96179.81
2022-12-03T16:01:18.444Z,96189.66
2022-12-03T16:03:46.361Z,96189.78
2022-12-03T16:06:14.671Z,96188.19
2022-12-03T16:08:42.279Z,96178.25
2022-12-03T16:11:09.788Z,96175.22
2022-12-03T16:13:37.312Z,96170.47
2022-12-03T16:16:06.587Z,96166.19
2022-12-03T16:18:34.190Z,96178.22
2022-12-03T16:21:01.703Z,96166.44
2022-12-03T16:23:29.232Z,96158.69
2022-12-03T16:25:56.764Z,96167.47
2022-12-03T16:28:24.306Z,96160.56
2022-12-03T16:30:51.861Z,96157.31
2022-12-03T16:33:27.038Z,96154.38
2022-12-03T16:35:55.248Z,96159.84
2022-12-03T16:38:22.786Z,96150.75
2022-12-03T16:40:50.319Z,96167.19
2022-12-03T16:43:17.858Z,96163.97
2022-12-03T16:46:20.343Z,96164.59
2022-12-03T16:48:49.550Z,96155.22
2022-12-03T16:51:19.179Z,96156.31
2022-12-03T16:53:46.844Z,96160.69
2022-12-03T16:56:14.872Z,96161.72
2022-12-03T16:58:42.491Z,96161.31
2022-12-03T17:01:10.419Z,96157.13
2022-12-03T17:03:38.048Z,96155.25
2022-12-03T17:06:07.466Z,96159.28
2022-12-03T17:08:35.013Z,96158.28
2022-12-03T17:11:02.613Z,96157.50
2022-12-03T17:13:30.172Z,96153.34
2022-12-03T17:15:57.754Z,96156.25
2022-12-03T17:18:25.504Z,96152.81
2022-12-03T17:20:53.042Z,96160.38
2022-12-03T17:23:21.923Z,96156.75
2022-12-03T17:25:49.459Z,96158.53
2022-12-03T17:28:16.968Z,96159.28
2022-12-03T17:30:44.795Z,96158.22
2022-12-03T17:33:12.386Z,96151.22
2022-12-03T17:35:39.899Z,96153.34
2022-12-03T17:38:08.985Z,96157.63
2022-12-03T17:40:37.878Z,96156.88
2022-12-03T17:43:05.420Z,96155.28
2022-12-03T17:45:32.947Z,96156.31
2022-12-03T17:48:00.488Z,96153.97
2022-12-03T17:50:28.057Z,96156.69
2022-12-03T17:52:55.595Z,96153.47
2022-12-03T17:55:31.301Z,96167.97
2022-12-03T17:58:05.086Z,96162.72
2022-12-03T18:00:32.934Z,96164.66
2022-12-03T18:03:00.523Z,96165.84
2022-12-03T18:05:28.046Z,96168.75
2022-12-03T18:07:55.592Z,96162.72
2022-12-03T18:10:23.281Z,96165.41
2022-12-03T18:12:50.819Z,96156.94
2022-12-03T18:15:19.748Z,96167.31
2022-12-03T18:17:47.262Z,96166.56
2022-12-03T18:20:15.002Z,96150.84
2022-12-03T18:22:42.558Z,96153.94
2022-12-03T18:25:11.255Z,96146.22
2022-12-03T18:27:38.870Z,96140.00
2022-12-03T18:30:07.810Z,96138.22
2022-12-03T18:32:36.727Z,96143.59
2022-12-03T18:35:04.851Z,96151.50
2022-12-03T18:37:33.631Z,96137.06
2022-12-03T18:40:02.038Z,96134.25
2022-12-03T18:42:30.530Z,96126.94
2022-12-03T18:44:58.291Z,96132.28
2022-12-03T18:47:30.955Z,96137.66
2022-12-03T18:49:59.898Z,96129.66
2022-12-03T18:52:27.539Z,96123.16
2022-12-03T18:54:55.373Z,96122.63
2022-12-03T18:57:22.927Z,96121.22
2022-12-03T18:59:50.526Z,96118.84
2022-12-03T19:05:10.888Z,96118.47
2022-12-03T19:07:38.667Z,96117.97
2022-12-03T19:10:07.156Z,96120.81
2022-12-03T19:12:34.698Z,96119.00
2022-12-03T19:15:02.630Z,96123.72
2022-12-03T19:17:30.216Z,96111.97
2022-12-03T19:19:58.100Z,96119.06
2022-12-03T19:22:27.146Z,96114.50
2022-12-03T19:24:54.696Z,96120.09
2022-12-03T19:27:22.237Z,96126.44
2022-12-03T19:29:49.956Z,96115.31
2022-12-03T19:32:17.626Z,96117.41
2022-12-03T19:34:45.160Z,96118.19
2022-12-03T19:37:12.831Z,96127.78
2022-12-03T19:39:43.036Z,96123.56
2022-12-03T19:42:10.738Z,96122.75
2022-12-03T19:44:39.045Z,96125.56
2022-12-03T19:47:06.626Z,96114.56
2022-12-03T19:49:34.196Z,96119.78
2022-12-03T19:52:01.705Z,96118.53
2022-12-03T19:54:29.239Z,96117.53
2022-12-03T19:56:58.117Z,96117.06
2022-12-03T19:59:25.656Z,96114.78
2022-12-03T20:01:53.292Z,96115.66
2022-12-03T20:04:20.982Z,96115.03
2022-12-03T20:06:48.501Z,96107.19
2022-12-03T20:09:17.635Z,96103.84
2022-12-03T20:11:46.090Z,96101.97
2022-12-03T20:14:17.340Z,96109.47
2022-12-03T20:16:45.894Z,96109.53
2022-12-03T20:19:15.297Z,96104.88
2022-12-03T20:21:43.320Z,96108.16
2022-12-03T20:24:14.980Z,96101.59
2022-12-03T20:26:43.169Z,96097.41
2022-12-03T20:29:10.729Z,96082.69
2022-12-03T20:31:39.731Z,96093.41
2022-12-03T20:34:07.353Z,96083.91
2022-12-03T20:36:34.997Z,96091.91
2022-12-03T20:39:03.731Z,96091.16
2022-12-03T20:41:31.497Z,96092.59
2022-12-03T20:43:59.047Z,96096.06
2022-12-03T20:46:28.782Z,96083.63
2022-12-03T20:48:59.069Z,96089.53
2022-12-03T20:51:28.465Z,96077.84
2022-12-03T20:53:56.829Z,96089.75
2022-12-03T20:56:26.677Z,96094.19
2022-12-03T20:58:54.574Z,96095.31
2022-12-03T21:01:23.940Z,96091.97
2022-12-03T21:03:53.414Z,96089.16
2022-12-03T21:06:23.791Z,96088.63
2022-12-03T21:08:53.708Z,96082.03
2022-12-03T21:11:24.819Z,96084.50
2022-12-03T21:13:53.279Z,96069.69
2022-12-03T21:16:39.432Z,96067.19
2022-12-03T21:19:10.611Z,96066.13
2022-12-03T21:21:39.466Z,96061.75
2022-12-03T21:24:07.570Z,96062.03
2022-12-03T21:26:35.152Z,96063.66
2022-12-03T21:29:02.708Z,96061.50
2022-12-03T21:31:31.782Z,96064.59
2022-12-03T21:33:59.907Z,96059.34
2022-12-03T21:36:27.601Z,96054.41
2022-12-03T21:38:56.474Z,96056.22
2022-12-03T21:41:24.056Z,96054.59
2022-12-03T21:43:52.126Z,96059.34
2022-12-03T21:47:09.949Z,96058.50
2022-12-03T21:49:07.170Z,96052.75
2022-12-03T21:51:34.735Z,96055.13
2022-12-03T21:54:03.682Z,96048.38
2022-12-03T21:56:31.875Z,96038.19
2022-12-03T21:58:59.485Z,96028.13
2022-12-03T22:01:27.213Z,96031.47
2022-12-03T22:03:54.748Z,96034.59
2022-12-03T22:06:22.938Z,96029.53
2022-12-03T22:08:50.738Z,96030.53
2022-12-03T22:11:24.919Z,96032.84
2022-12-03T22:13:54.356Z,96032.34
2022-12-03T22:16:22.679Z,96022.31
2022-12-03T22:18:50.602Z,96031.97
2022-12-03T22:21:20.120Z,96023.41
2022-12-03T22:23:48.135Z,96032.31
2022-12-03T22:26:17.205Z,96035.13
2022-12-03T22:28:47.469Z,96026.56
2022-12-03T22:31:15.780Z,96026.41
2022-12-03T22:33:47.905Z,96017.50
2022-12-03T22:36:21.090Z,96023.53
2022-12-03T22:38:50.287Z,96025.47
2022-12-03T22:41:18.518Z,96030.25
2022-12-03T22:43:47.845Z,96022.41
2022-12-03T22:46:16.002Z,96023.16
2022-12-03T22:48:44.909Z,96018.88
2022-12-03T22:51:14.136Z,96018.81
2022-12-03T22:53:41.691Z,96010.78
2022-12-03T22:56:09.344Z,96019.06
2022-12-03T22:58:38.652Z,96021.56
2022-12-03T23:01:08.615Z,96017.84
2022-12-03T23:03:37.410Z,96015.66
2022-12-03T23:06:10.962Z,96011.78
2022-12-03T23:08:38.940Z,96008.47
2022-12-03T23:11:06.871Z,96004.28
2022-12-03T23:13:35.212Z,96004.41
2022-12-03T23:16:03.500Z,96008.31
2022-12-03T23:18:32.740Z,96005.00
2022-12-03T23:21:00.549Z,96000.31
2022-12-03T23:23:28.736Z,96002.66
2022-12-03T23:25:59.775Z,96007.81
2022-12-03T23:28:28.153Z,96007.44
2022-12-03T23:30:55.826Z,96012.53
2022-12-03T23:33:23.879Z,96006.50
2022-12-03T23:35:52.757Z,95994.56
2022-12-03T23:38:20.540Z,96004.56
2022-12-03T23:40:48.646Z,96000.75
2022-12-03T23:43:16.270Z,95996.72
2022-12-03T23:45:43.886Z,95985.53
2022-12-03T23:48:11.490Z,95981.25
2022-12-03T23:50:41.176Z,95975.44
2022-12-03T23:53:10.096Z,95969.16
2022-12-03T23:55:40.095Z,95965.63
2022-12-03T23:58:07.669Z,95968.22
